Mapleton, Texas
Current Conditions -  °F | °C
As of 10:55 AM on Friday 28 Nov 2014 (Local Time) from KDKR Reporting Station
Clear Clear  
Wind Chill: 63°   Ceiling: Unl
Heat Index: 63°   Visibility: 10mi
Dew Point: 48°   Wind: 8mph
Humidity: 59%   Direction: 170°S
Pressure: 30.34"   Gusts: NA
Location:  31.2828°N, 95.4821°W
Report Text: KDKR 281655Z AUTO 17007KT 020V030 10SM CLR 17/09 A3034 RMK AO2
Loading
Personal Weather Stations






























Interactive Weather Map New forecast layout! Learn more

10-Day Weather Forecast

Advertisements
Track Severe Weather on mobile